Flight Track Log - Related Links

Times and Time Zones

All times are in EDT time to prevent confusion due to time zone crossing. See the N1250V flight status page for this flight to view local times or setup timezone preferences in your user account.


Time Position Orientation Groundspeed Altitude Reporting Facility
EDT Latitude Longitude Course Direction KTS MPH feet Rate Location/Type
Fri 03:19:20 PM 39.2831 -106.9675 284° West 174 200 12,800  Level Denver Center
Fri 03:20:22 PM 39.3103 -107.0194 304° West 196 226 14,800 1,887 Climbing Denver Center
Fri 03:21:24 PM 39.3617 -107.0378 345° North 188 216 16,700 1,016 Climbing Denver Center
Fri 03:22:26 PM 39.4231 -106.9981 27° Northeast 261 300 16,900 48 Climbing Denver Center
Fri 03:23:00 PM 39.3668 -106.5503 104° East  Level FlightAware Approximate
Fri 03:23:28 PM 39.4119 -106.9011 98° East 268 308 16,800  Level Denver Center
Fri 03:24:31 PM 39.3978 -106.8153 102° East 255 293 16,900 48 Climbing Denver Center
Fri 03:25:33 PM 39.3847 -106.7200 100° East 265 305 16,900  Level Denver Center
Fri 03:26:35 PM 39.3708 -106.6211 100° East 277 319 16,900  Level Denver Center
Fri 03:27:37 PM 39.3411 -106.5144 110° East 265 305 16,900  Level Denver Center
Fri 03:28:39 PM 39.3125 -106.4283 113° Southeast 261 300 16,900  Level Denver Center
Fri 03:29:41 PM 39.2761 -106.3494 121° Southeast 257 296 16,900  Level Denver Center
Fri 03:30:43 PM 39.2419 -106.2686 119° Southeast 255 293 16,900  Level Denver Center
Fri 03:31:45 PM 39.2097 -106.1864 117° Southeast 256 295 16,900  Level Denver Center
Fri 03:32:47 PM 39.1644 -106.0967 123° Southeast 252 290 16,900  Level Denver Center
Fri 03:33:49 PM 39.1414 -106.0142 110° East 255 293 16,900 -435 Level Denver Center
Fri 03:34:51 PM 39.1433 -105.9178 88° East 263 303 16,000 -484 Descending Denver Center
Fri 03:35:53 PM 39.1508 -105.8186 84° East 274 315 15,900 -48 Descending Denver Center
Fri 03:36:56 PM 39.1561 -105.7133 86° East 293 337 15,900 48 Level Denver Center
Fri 03:37:58 PM 39.1622 -105.6200 85° East 266 306 16,000  Climbing Denver Center
Fri 03:39:00 PM 39.1706 -105.4964 85° East 286 329 15,900 -435 Descending Denver Center
Fri 03:40:02 PM 39.1758 -105.4069 86° East 260 299 15,100 -387 Descending Denver Center
Fri 03:41:04 PM 39.1822 -105.3136 85° East 245 282 15,100  Level Denver Center
Fri 03:42:06 PM 39.1869 -105.2122 87° East 276 318 15,100 -581 Level Denver Center
Fri 03:43:08 PM 39.1931 -105.1006 86° East 290 334 13,900 -1,452 Descending Denver Center
Fri 03:44:10 PM 39.2531 -105.0553 30° Northeast 246 283 12,100 -1,452 Descending Denver Center
Fri 03:45:12 PM 39.3119 -105.0183 26° Northeast 237 273 10,900 -1,016 Descending Denver Center
Fri 03:46:14 PM 39.3731 -104.9811 25° Northeast 228 262 10,000 -871 Descending Denver Center
Fri 03:47:16 PM 39.4350 -104.9817 360° North 222 255 9,100 -823 Descending Denver Center
Fri 03:48:18 PM 39.5025 -104.9833 359° North 225 259 8,300 -677 Descending Denver Center
Fri 03:49:20 PM 39.5586 -104.9831 360° North 204 235 7,700 -384 Descending Denver Center
Fri 03:50:23 PM 39.5906 -104.9422 45° Northeast 170 196 7,500 -384 Descending Denver Center
Fri 03:51:25 PM 39.6061 -104.8969 66° East 141 162 6,900 -581 Descending Denver Center
Fri 03:52:27 PM 39.6067 -104.8556 89° East 119 137 6,300 -532 Descending Denver Center
Fri 03:53:29 PM 39.5781 -104.8508 173° South 106 122 5,800 -484 Descending Denver Center

Login

Don't have an account? Register now (free) for customized features, flight alerts, and more!